Time;durP1;ratioP1;P1;durP2;ratioP2;P2;SDS_P1;SDS_P2;PMS_P1;PMS_P2;Temp;Humidity;BMP_temperature;BMP_pressure;BME280_temperature;BME280_humidity;BME280_pressure;Samples;Min_cycle;Max_cycle;Signal;HPM_P1;HPM_P2
2021/06/09 00:01:39;;;;;;;9.80;9.07;;;;;;;;;;5008892;28;20038;-56
2021/06/09 00:04:06;;;;;;;8.07;7.72;;;;;;;;;;5007760;28;20517;-57
2021/06/09 00:06:33;;;;;;;7.72;7.28;;;;;;;;;;5003423;28;20058;-56
2021/06/09 00:09:00;;;;;;;7.55;6.93;;;;;;;;;;5000604;28;20352;-58
2021/06/09 00:11:27;;;;;;;6.68;6.38;;;;;;;;;;5010991;28;20084;-57
2021/06/09 00:13:54;;;;;;;7.75;7.40;;;;;;;;;;5009998;28;20041;-56
2021/06/09 00:16:21;;;;;;;7.90;7.40;;;;;;;;;;5008567;28;20061;-56
2021/06/09 00:18:48;;;;;;;7.72;7.32;;;;;;;;;;5011096;28;20108;-57
2021/06/09 00:21:16;;;;;;;8.02;7.55;;;;;;;;;;5008069;28;20034;-58
2021/06/09 00:23:43;;;;;;;8.68;8.48;;;;;;;;;;5011867;28;20510;-56
2021/06/09 00:26:10;;;;;;;9.05;7.63;;;;;;;;;;5010335;28;20091;-56
2021/06/09 00:28:37;;;;;;;8.00;6.30;;;;;;;;;;5009402;28;20068;-57
2021/06/09 00:31:05;;;;;;;5.85;5.75;;;;;;;;;;5011838;28;20105;-57
2021/06/09 00:33:32;;;;;;;7.80;5.55;;;;;;;;;;5010364;28;20098;-56
2021/06/09 00:35:59;;;;;;;11.80;5.53;;;;;;;;;;5008910;28;20216;-57
2021/06/09 00:38:26;;;;;;;36.08;7.90;;;;;;;;;;5015369;28;20816;-56
2021/06/09 00:40:53;;;;;;;67.03;7.88;;;;;;;;;;5017751;28;20030;-57
2021/06/09 00:43:21;;;;;;;7.28;6.60;;;;;;;;;;5011038;28;20050;-56
2021/06/09 00:45:53;;;;;;;60.38;7.85;;;;;;;;;;5008297;28;20049;-57
2021/06/09 00:48:24;;;;;;;9.43;6.53;;;;;;;;;;5016991;28;20037;-56
2021/06/09 00:50:52;;;;;;;20.00;6.57;;;;;;;;;;5010349;28;20034;-57
2021/06/09 00:53:29;;;;;;;20.33;7.00;;;;;;;;;;5008629;28;20053;-57
2021/06/09 00:55:56;;;;;;;95.18;9.77;;;;;;;;;;5010977;28;20054;-56
2021/06/09 00:58:24;;;;;;;7.90;7.18;;;;;;;;;;5008131;28;20025;-56
2021/06/09 01:00:51;;;;;;;13.15;7.38;;;;;;;;;;5008419;28;20042;-56
2021/06/09 01:03:18;;;;;;;10.43;7.47;;;;;;;;;;5009990;28;20042;-57
2021/06/09 01:05:44;;;;;;;7.70;7.25;;;;;;;;;;5007804;28;20053;-56
2021/06/09 01:08:13;;;;;;;9.25;8.70;;;;;;;;;;4994354;28;20391;-57
2021/06/09 01:10:40;;;;;;;8.40;8.10;;;;;;;;;;5008728;28;20069;-57
2021/06/09 01:13:06;;;;;;;7.15;6.95;;;;;;;;;;5007687;28;20060;-57
2021/06/09 01:15:33;;;;;;;7.90;7.25;;;;;;;;;;5010257;28;20034;-57
2021/06/09 01:18:00;;;;;;;7.75;7.35;;;;;;;;;;5008243;28;20634;-57
2021/06/09 01:20:27;;;;;;;7.40;7.30;;;;;;;;;;5007808;28;20108;-57
2021/06/09 01:22:54;;;;;;;7.65;7.45;;;;;;;;;;5010156;28;20104;-56
2021/06/09 01:25:21;;;;;;;7.20;6.90;;;;;;;;;;5008527;28;20034;-57
2021/06/09 01:27:49;;;;;;;7.43;7.22;;;;;;;;;;5010176;28;20602;-57
2021/06/09 01:30:18;;;;;;;8.85;8.10;;;;;;;;;;5008256;28;20038;-56
2021/06/09 01:32:44;;;;;;;7.75;7.18;;;;;;;;;;5007651;28;20104;-56
2021/06/09 01:35:11;;;;;;;8.98;8.35;;;;;;;;;;5007982;28;20108;-57
2021/06/09 01:37:38;;;;;;;7.80;7.60;;;;;;;;;;4999076;28;20038;-57
2021/06/09 01:40:08;;;;;;;8.25;8.05;;;;;;;;;;5009633;28;20104;-57
2021/06/09 01:42:35;;;;;;;7.63;7.07;;;;;;;;;;5008153;28;20030;-56
2021/06/09 01:45:02;;;;;;;8.00;7.43;;;;;;;;;;5007575;28;20092;-57
2021/06/09 01:47:28;;;;;;;8.15;7.40;;;;;;;;;;5010838;28;20042;-56
2021/06/09 01:49:55;;;;;;;7.43;7.00;;;;;;;;;;5006937;28;20104;-56
2021/06/09 01:52:22;;;;;;;6.85;6.65;;;;;;;;;;5011127;28;20081;-57
2021/06/09 01:54:49;;;;;;;7.18;6.75;;;;;;;;;;5007882;28;20030;-56
2021/06/09 01:57:16;;;;;;;7.95;7.53;;;;;;;;;;5008159;28;20046;-56
2021/06/09 01:59:43;;;;;;;6.95;6.75;;;;;;;;;;5009709;28;20034;-56
2021/06/09 02:02:11;;;;;;;7.50;6.88;;;;;;;;;;5007637;28;20505;-56
2021/06/09 02:04:39;;;;;;;6.78;6.43;;;;;;;;;;5009436;28;20048;-57
2021/06/09 02:07:06;;;;;;;7.30;7.10;;;;;;;;;;5008056;28;20042;-57
2021/06/09 02:09:34;;;;;;;7.13;6.90;;;;;;;;;;5008052;28;20061;-56
2021/06/09 02:12:02;;;;;;;7.82;7.28;;;;;;;;;;5009920;28;20050;-58
2021/06/09 02:14:29;;;;;;;6.85;6.45;;;;;;;;;;5011609;28;20048;-57
2021/06/09 02:16:56;;;;;;;6.78;6.35;;;;;;;;;;5011825;28;20112;-56
2021/06/09 02:19:23;;;;;;;8.30;7.50;;;;;;;;;;5012844;28;20038;-56
2021/06/09 02:21:51;;;;;;;8.82;8.07;;;;;;;;;;5011417;28;20045;-56
2021/06/09 02:24:18;;;;;;;6.80;6.45;;;;;;;;;;5012367;28;20046;-57
2021/06/09 02:26:45;;;;;;;7.63;7.07;;;;;;;;;;5009946;28;20699;-56
2021/06/09 02:29:13;;;;;;;7.55;7.32;;;;;;;;;;5011910;28;20037;-57
2021/06/09 02:31:44;;;;;;;7.45;7.00;;;;;;;;;;5013421;28;20108;-57
2021/06/09 02:34:12;;;;;;;7.50;7.15;;;;;;;;;;5011629;28;20054;-56
2021/06/09 02:36:39;;;;;;;7.25;6.72;;;;;;;;;;5012312;28;20096;-56
2021/06/09 02:39:06;;;;;;;7.43;7.05;;;;;;;;;;5010139;28;20026;-56
2021/06/09 02:41:33;;;;;;;7.00;6.70;;;;;;;;;;5010222;28;20542;-56
2021/06/09 02:44:00;;;;;;;8.30;7.80;;;;;;;;;;5013944;28;20038;-56
2021/06/09 02:46:34;;;;;;;7.72;6.97;;;;;;;;;;5011903;28;20081;-57
2021/06/09 02:49:03;;;;;;;7.95;7.40;;;;;;;;;;5011432;28;20516;-57
2021/06/09 02:51:31;;;;;;;8.85;7.32;;;;;;;;;;5011403;28;20072;-56
2021/06/09 02:54:05;;;;;;;9.10;8.48;;;;;;;;;;5008770;28;20528;-57
2021/06/09 02:56:51;;;;;;;7.65;7.45;;;;;;;;;;5012794;28;20107;-57
2021/06/09 02:59:24;;;;;;;7.30;7.10;;;;;;;;;;4983496;28;20061;-57
2021/06/09 03:02:09;;;;;;;6.93;6.67;;;;;;;;;;5016359;28;20041;-57
2021/06/09 03:04:43;;;;;;;7.63;7.43;;;;;;;;;;5013683;28;20034;-56
2021/06/09 03:07:23;;;;;;;7.32;6.93;;;;;;;;;;5010401;28;20084;-56
2021/06/09 03:09:49;;;;;;;9.57;8.68;;;;;;;;;;4997012;28;20494;-56
2021/06/09 03:12:25;;;;;;;8.48;7.90;;;;;;;;;;5011621;28;20042;-57
2021/06/09 03:15:12;;;;;;;9.40;8.07;;;;;;;;;;5010459;28;20065;-57
2021/06/09 03:17:39;;;;;;;7.70;7.50;;;;;;;;;;4994416;28;20046;-57
2021/06/09 03:20:11;;;;;;;8.93;8.52;;;;;;;;;;5011032;28;20129;-57
2021/06/09 03:23:05;;;;;;;7.55;7.28;;;;;;;;;;5009569;28;20037;-57
2021/06/09 03:25:35;;;;;;;8.57;8.05;;;;;;;;;;4986919;28;20068;-56
2021/06/09 03:28:15;;;;;;;8.25;7.80;;;;;;;;;;5010594;28;20042;-56
2021/06/09 03:30:43;;;;;;;8.02;7.82;;;;;;;;;;5009930;28;20077;-56
2021/06/09 03:33:11;;;;;;;7.32;6.85;;;;;;;;;;5012280;28;20042;-56
2021/06/09 03:35:44;;;;;;;8.02;7.57;;;;;;;;;;5010321;28;20042;-57
2021/06/09 03:38:16;;;;;;;6.73;6.60;;;;;;;;;;5009378;28;20042;-56
2021/06/09 03:40:44;;;;;;;8.07;7.82;;;;;;;;;;5012995;28;20308;-57
2021/06/09 03:43:13;;;;;;;17.58;8.15;;;;;;;;;;5009513;28;20095;-57
2021/06/09 03:45:45;;;;;;;6.75;6.55;;;;;;;;;;4993792;28;20103;-58
2021/06/09 03:48:13;;;;;;;7.03;6.82;;;;;;;;;;5015620;28;20407;-57
2021/06/09 03:50:41;;;;;;;7.47;7.13;;;;;;;;;;5009933;28;20049;-57
2021/06/09 03:53:08;;;;;;;7.20;6.40;;;;;;;;;;5002849;28;20042;-58
2021/06/09 03:55:36;;;;;;;7.63;6.97;;;;;;;;;;5007969;28;20038;-57
2021/06/09 03:58:07;;;;;;;7.32;7.13;;;;;;;;;;5008890;28;20994;-57
2021/06/09 04:00:34;;;;;;;7.30;6.85;;;;;;;;;;5011155;28;20042;-56
2021/06/09 04:03:03;;;;;;;7.78;6.60;;;;;;;;;;5010770;28;20103;-57
2021/06/09 04:05:30;;;;;;;7.03;6.72;;;;;;;;;;5011225;28;20053;-58
2021/06/09 04:07:58;;;;;;;8.70;7.95;;;;;;;;;;5010674;28;20085;-56
2021/06/09 04:10:26;;;;;;;12.38;8.73;;;;;;;;;;5008543;28;20046;-57
2021/06/09 04:12:53;;;;;;;7.85;7.45;;;;;;;;;;5012087;28;20426;-57
2021/06/09 04:15:22;;;;;;;7.70;7.50;;;;;;;;;;5007835;28;20088;-57
2021/06/09 04:17:49;;;;;;;8.90;8.20;;;;;;;;;;5010196;28;20042;-57
2021/06/09 04:20:24;;;;;;;7.88;7.65;;;;;;;;;;5008826;28;20048;-56
2021/06/09 04:22:51;;;;;;;6.70;6.60;;;;;;;;;;5009317;28;20474;-58
2021/06/09 04:25:19;;;;;;;7.25;6.95;;;;;;;;;;5010346;28;20050;-56
2021/06/09 04:27:46;;;;;;;7.07;6.60;;;;;;;;;;5008701;28;20077;-57
2021/06/09 04:30:17;;;;;;;8.32;7.60;;;;;;;;;;5008841;28;20034;-57
2021/06/09 04:32:47;;;;;;;7.63;7.30;;;;;;;;;;5011586;28;20092;-57
2021/06/09 04:35:14;;;;;;;8.07;7.28;;;;;;;;;;5008689;28;20026;-57
2021/06/09 04:37:40;;;;;;;7.47;6.72;;;;;;;;;;5010494;28;20042;-56
2021/06/09 04:40:13;;;;;;;7.78;7.00;;;;;;;;;;5008188;28;20034;-57
2021/06/09 04:42:42;;;;;;;5.88;5.57;;;;;;;;;;4998123;28;20038;-56
2021/06/09 04:45:10;;;;;;;5.82;5.72;;;;;;;;;;5010551;28;20100;-58
2021/06/09 04:47:38;;;;;;;6.82;6.38;;;;;;;;;;5008638;28;20045;-57
2021/06/09 04:50:05;;;;;;;6.55;6.00;;;;;;;;;;5010027;28;20052;-57
2021/06/09 04:52:32;;;;;;;8.45;7.82;;;;;;;;;;5008889;28;20033;-56
2021/06/09 04:54:59;;;;;;;8.02;7.38;;;;;;;;;;5009920;28;20583;-57
2021/06/09 04:57:26;;;;;;;7.43;7.20;;;;;;;;;;5010573;28;20053;-57
2021/06/09 04:59:53;;;;;;;8.35;7.60;;;;;;;;;;5008005;28;20034;-56
2021/06/09 05:02:20;;;;;;;9.18;8.70;;;;;;;;;;5008683;28;20076;-57
2021/06/09 05:04:47;;;;;;;6.72;6.57;;;;;;;;;;5011105;28;20030;-57
2021/06/09 05:07:14;;;;;;;10.50;7.30;;;;;;;;;;5007538;28;20034;-57
2021/06/09 05:09:41;;;;;;;7.90;7.50;;;;;;;;;;5011165;28;20034;-57
2021/06/09 05:12:08;;;;;;;7.55;7.35;;;;;;;;;;5009147;28;20041;-57
2021/06/09 05:14:36;;;;;;;8.55;7.68;;;;;;;;;;5007946;28;20071;-56
2021/06/09 05:17:04;;;;;;;7.80;7.40;;;;;;;;;;5009902;28;20044;-56
2021/06/09 05:19:33;;;;;;;7.07;6.55;;;;;;;;;;5007745;28;20038;-56
2021/06/09 05:22:23;;;;;;;7.93;7.28;;;;;;;;;;5009589;28;20486;-57
2021/06/09 05:24:50;;;;;;;8.10;7.38;;;;;;;;;;4998407;28;20090;-58
2021/06/09 05:27:20;;;;;;;7.63;6.82;;;;;;;;;;4998105;28;20038;-57
2021/06/09 05:29:48;;;;;;;6.65;6.55;;;;;;;;;;5009388;28;20049;-56
2021/06/09 05:32:16;;;;;;;6.25;6.15;;;;;;;;;;5007934;28;20045;-57
2021/06/09 05:34:43;;;;;;;7.35;6.80;;;;;;;;;;5007862;28;20100;-57
2021/06/09 05:37:10;;;;;;;5.85;5.65;;;;;;;;;;5010935;28;20053;-57
2021/06/09 05:39:38;;;;;;;5.88;5.78;;;;;;;;;;5008186;28;20053;-58
2021/06/09 05:42:10;;;;;;;6.20;5.75;;;;;;;;;;5010070;28;20045;-57
2021/06/09 05:44:37;;;;;;;6.45;6.15;;;;;;;;;;5008678;28;20049;-57
2021/06/09 05:47:03;;;;;;;5.57;5.47;;;;;;;;;;4999405;28;20070;-57
2021/06/09 05:49:31;;;;;;;6.68;6.13;;;;;;;;;;5013281;28;20054;-57
2021/06/09 05:51:58;;;;;;;8.20;7.60;;;;;;;;;;5011592;28;20049;-55
2021/06/09 05:54:31;;;;;;;6.38;6.13;;;;;;;;;;5004205;28;20510;-57
2021/06/09 05:56:59;;;;;;;5.55;5.18;;;;;;;;;;5012271;28;20100;-56
2021/06/09 05:59:26;;;;;;;5.43;5.25;;;;;;;;;;5011403;28;20045;-56
2021/06/09 06:01:53;;;;;;;6.13;5.95;;;;;;;;;;5014823;28;20045;-57
2021/06/09 06:04:20;;;;;;;5.00;4.72;;;;;;;;;;5010572;28;20034;-56
2021/06/09 06:06:49;;;;;;;5.43;5.25;;;;;;;;;;4995333;28;20054;-56
2021/06/09 06:09:17;;;;;;;5.50;5.40;;;;;;;;;;5013442;28;20054;-57
2021/06/09 06:11:44;;;;;;;6.35;6.05;;;;;;;;;;5011139;28;20034;-56
2021/06/09 06:14:11;;;;;;;6.20;5.65;;;;;;;;;;4998520;28;20042;-57
2021/06/09 06:16:49;;;;;;;6.53;6.07;;;;;;;;;;5009541;28;20046;-56
2021/06/09 06:19:16;;;;;;;5.65;5.35;;;;;;;;;;5010674;28;20053;-57
2021/06/09 06:21:42;;;;;;;6.55;4.78;;;;;;;;;;5014344;28;20041;-57
2021/06/09 06:24:09;;;;;;;4.50;4.38;;;;;;;;;;5005695;28;20501;-56
2021/06/09 06:26:37;;;;;;;4.13;3.83;;;;;;;;;;5014138;28;20092;-57
2021/06/09 06:29:04;;;;;;;3.60;3.50;;;;;;;;;;5010659;28;20050;-57
2021/06/09 06:31:31;;;;;;;4.80;4.40;;;;;;;;;;5010906;28;20050;-56
2021/06/09 06:33:59;;;;;;;4.70;4.50;;;;;;;;;;5013294;28;20042;-56
2021/06/09 06:36:26;;;;;;;4.60;4.40;;;;;;;;;;5009881;28;20049;-56
2021/06/09 06:38:53;;;;;;;4.68;4.57;;;;;;;;;;5012921;28;20045;-56
2021/06/09 06:41:21;;;;;;;9.23;5.18;;;;;;;;;;5010950;28;20038;-57
2021/06/09 06:43:49;;;;;;;6.18;4.85;;;;;;;;;;5011615;28;20030;-56
2021/06/09 06:46:20;;;;;;;5.67;5.37;;;;;;;;;;5012588;28;20103;-56
2021/06/09 06:48:50;;;;;;;7.78;6.22;;;;;;;;;;5010119;28;20060;-56
2021/06/09 06:51:17;;;;;;;5.80;5.32;;;;;;;;;;5009043;28;20095;-56
2021/06/09 06:53:46;;;;;;;5.38;4.97;;;;;;;;;;5012821;28;20394;-56
2021/06/09 06:56:14;;;;;;;5.32;4.50;;;;;;;;;;5010694;28;20100;-56
2021/06/09 06:58:48;;;;;;;4.90;3.78;;;;;;;;;;4999275;28;20054;-56
2021/06/09 07:01:19;;;;;;;4.90;4.80;;;;;;;;;;5009509;28;20041;-56
2021/06/09 07:03:46;;;;;;;4.15;4.05;;;;;;;;;;5010257;28;20049;-56
2021/06/09 07:06:13;;;;;;;4.10;3.75;;;;;;;;;;5011133;28;20614;-57
2021/06/09 07:08:40;;;;;;;4.45;3.92;;;;;;;;;;5011633;28;20374;-56
2021/06/09 07:11:10;;;;;;;4.13;3.97;;;;;;;;;;5002120;28;20039;-56
2021/06/09 07:13:37;;;;;;;4.20;3.97;;;;;;;;;;5006224;28;20039;-56
2021/06/09 07:16:05;;;;;;;4.28;4.13;;;;;;;;;;4998427;28;20089;-56
2021/06/09 07:18:34;;;;;;;4.55;4.30;;;;;;;;;;5012815;28;20065;-56
2021/06/09 07:21:01;;;;;;;3.60;3.42;;;;;;;;;;5010066;28;20049;-57
2021/06/09 07:23:27;;;;;;;5.40;3.75;;;;;;;;;;5010953;28;20100;-57
2021/06/09 07:25:54;;;;;;;4.35;4.07;;;;;;;;;;5011060;28;20045;-56
2021/06/09 07:28:22;;;;;;;3.50;3.38;;;;;;;;;;5010510;28;20096;-56
2021/06/09 07:30:50;;;;;;;4.65;4.35;;;;;;;;;;5011904;28;20548;-56
2021/06/09 07:33:16;;;;;;;4.30;3.45;;;;;;;;;;5010154;28;20060;-57
2021/06/09 07:35:43;;;;;;;3.28;3.05;;;;;;;;;;5008378;28;20041;-56
2021/06/09 07:38:20;;;;;;;4.03;3.65;;;;;;;;;;5012846;28;20368;-57
2021/06/09 07:40:59;;;;;;;3.47;3.17;;;;;;;;;;5010681;28;20113;-56
2021/06/09 07:43:27;;;;;;;4.38;3.80;;;;;;;;;;4999323;28;20034;-57
2021/06/09 07:45:55;;;;;;;3.67;3.58;;;;;;;;;;5010126;28;20026;-56
2021/06/09 07:48:23;;;;;;;5.85;3.42;;;;;;;;;;5008982;28;20041;-57
2021/06/09 07:50:59;;;;;;;3.20;3.10;;;;;;;;;;5012941;28;20038;-56
2021/06/09 07:53:29;;;;;;;5.50;3.10;;;;;;;;;;5008407;28;20402;-56
2021/06/09 07:55:56;;;;;;;9.27;3.65;;;;;;;;;;5009185;28;20109;-56
2021/06/09 07:58:27;;;;;;;2.70;2.30;;;;;;;;;;5011194;28;20453;-56
2021/06/09 08:00:55;;;;;;;3.45;3.25;;;;;;;;;;5009655;28;20471;-57
2021/06/09 08:03:32;;;;;;;4.88;3.38;;;;;;;;;;5011669;28;20034;-56
2021/06/09 08:06:01;;;;;;;3.28;3.17;;;;;;;;;;5008905;28;20156;-57
2021/06/09 08:08:29;;;;;;;3.83;3.58;;;;;;;;;;5008829;28;20065;-56
2021/06/09 08:10:56;;;;;;;2.35;2.15;;;;;;;;;;5011833;28;20041;-57
2021/06/09 08:13:23;;;;;;;2.80;2.70;;;;;;;;;;5009543;28;20108;-56
2021/06/09 08:15:51;;;;;;;3.00;2.80;;;;;;;;;;5010269;28;20435;-56
2021/06/09 08:18:18;;;;;;;4.50;4.13;;;;;;;;;;5010753;28;20038;-56
2021/06/09 08:21:03;;;;;;;2.72;2.53;;;;;;;;;;5006329;28;20042;-56
2021/06/09 08:23:30;;;;;;;4.75;4.65;;;;;;;;;;5025310;28;20042;-56
2021/06/09 08:25:57;;;;;;;5.00;4.72;;;;;;;;;;5009156;28;20560;-56
2021/06/09 08:28:24;;;;;;;5.38;5.07;;;;;;;;;;5008547;28;20041;-57
2021/06/09 08:30:51;;;;;;;3.97;3.78;;;;;;;;;;5011859;28;20046;-56
2021/06/09 08:33:18;;;;;;;3.83;3.50;;;;;;;;;;5007863;28;20044;-56
2021/06/09 08:35:45;;;;;;;4.15;3.80;;;;;;;;;;5027329;28;20045;-56
2021/06/09 08:38:12;;;;;;;4.22;3.88;;;;;;;;;;5009256;28;20096;-57
2021/06/09 08:40:38;;;;;;;6.78;3.53;;;;;;;;;;5008240;28;20096;-57
2021/06/09 08:43:05;;;;;;;3.03;2.92;;;;;;;;;;5011557;28;20398;-57
2021/06/09 08:45:32;;;;;;;3.58;3.38;;;;;;;;;;5008540;28;20070;-57
2021/06/09 08:48:00;;;;;;;2.70;2.60;;;;;;;;;;5027336;28;20385;-57
2021/06/09 08:50:27;;;;;;;2.22;2.13;;;;;;;;;;5009359;28;20033;-57
2021/06/09 08:52:54;;;;;;;3.78;3.03;;;;;;;;;;5009286;28;20066;-56
2021/06/09 08:55:21;;;;;;;3.35;3.25;;;;;;;;;;5010873;28;20042;-56
2021/06/09 08:57:48;;;;;;;10.00;3.75;;;;;;;;;;5008848;28;20045;-56
2021/06/09 09:00:17;;;;;;;3.15;2.05;;;;;;;;;;5012902;28;20137;-56
2021/06/09 09:02:45;;;;;;;4.43;1.70;;;;;;;;;;5010476;28;20038;-56
2021/06/09 09:05:12;;;;;;;2.08;1.05;;;;;;;;;;5008390;28;20038;-57
2021/06/09 09:07:39;;;;;;;6.68;1.45;;;;;;;;;;4996832;28;20050;-57
2021/06/09 09:10:08;;;;;;;1.65;1.30;;;;;;;;;;5007146;28;20054;-56
2021/06/09 09:12:36;;;;;;;4.90;1.17;;;;;;;;;;5017519;28;20475;-57
2021/06/09 09:15:04;;;;;;;2.35;1.05;;;;;;;;;;5009884;28;20125;-57
2021/06/09 09:17:31;;;;;;;0.90;0.90;;;;;;;;;;5008003;28;20033;-56
2021/06/09 09:20:05;;;;;;;1.00;0.90;;;;;;;;;;5004824;28;20037;-56
2021/06/09 09:22:33;;;;;;;1.77;0.80;;;;;;;;;;5005864;28;20038;-56
2021/06/09 09:25:10;;;;;;;1.38;0.80;;;;;;;;;;5010625;28;20042;-56
2021/06/09 09:27:37;;;;;;;2.95;0.90;;;;;;;;;;5009636;28;20471;-56
2021/06/09 09:30:08;;;;;;;0.88;0.80;;;;;;;;;;5009149;28;20095;-56
2021/06/09 09:32:36;;;;;;;2.17;0.80;;;;;;;;;;4992423;28;20068;-56
2021/06/09 09:35:05;;;;;;;0.77;0.77;;;;;;;;;;5009260;28;20042;-56
2021/06/09 09:37:32;;;;;;;4.47;1.00;;;;;;;;;;5009399;28;20049;-55
2021/06/09 09:40:14;;;;;;;0.85;0.85;;;;;;;;;;4998303;28;20041;-56
2021/06/09 09:42:42;;;;;;;1.20;0.90;;;;;;;;;;5006659;28;20433;-56
2021/06/09 09:45:16;;;;;;;0.80;0.80;;;;;;;;;;4996764;28;20038;-57
2021/06/09 09:47:43;;;;;;;2.15;0.90;;;;;;;;;;5010020;28;20524;-56
2021/06/09 09:50:29;;;;;;;1.45;0.80;;;;;;;;;;5008910;28;20046;-56
2021/06/09 09:53:17;;;;;;;1.75;0.90;;;;;;;;;;4994730;28;20045;-56
2021/06/09 09:56:02;;;;;;;3.83;1.13;;;;;;;;;;5020814;28;20045;-56
2021/06/09 09:58:31;;;;;;;1.48;0.82;;;;;;;;;;5005257;28;20038;-56
2021/06/09 10:01:11;;;;;;;1.75;0.85;;;;;;;;;;5009373;28;20185;-56
2021/06/09 10:03:39;;;;;;;1.02;0.80;;;;;;;;;;4998629;28;20042;-56
2021/06/09 10:06:20;;;;;;;1.42;0.90;;;;;;;;;;5015230;28;20042;-57
2021/06/09 10:08:47;;;;;;;1.00;0.90;;;;;;;;;;5007312;28;20050;-56
2021/06/09 10:11:15;;;;;;;4.78;0.90;;;;;;;;;;5008623;28;20075;-56
2021/06/09 10:13:43;;;;;;;0.80;0.80;;;;;;;;;;5002077;28;20050;-56
2021/06/09 10:16:26;;;;;;;0.70;0.70;;;;;;;;;;5005115;28;20046;-56
2021/06/09 10:19:00;;;;;;;1.45;0.80;;;;;;;;;;5005936;28;20100;-57
2021/06/09 10:21:28;;;;;;;0.80;0.80;;;;;;;;;;5005762;28;20073;-56
2021/06/09 10:24:00;;;;;;;2.67;1.15;;;;;;;;;;5007229;28;20096;-56
2021/06/09 10:26:27;;;;;;;0.80;0.80;;;;;;;;;;5006266;28;20045;-57
2021/06/09 10:29:00;;;;;;;0.80;0.80;;;;;;;;;;5015277;28;20072;-56
2021/06/09 10:31:27;;;;;;;0.80;0.80;;;;;;;;;;5005713;28;20045;-56
2021/06/09 10:33:55;;;;;;;5.80;1.10;;;;;;;;;;5005840;28;20107;-57
2021/06/09 10:36:22;;;;;;;0.90;0.90;;;;;;;;;;5010251;28;20072;-57
2021/06/09 10:38:49;;;;;;;1.00;0.80;;;;;;;;;;5009947;28;20161;-56
2021/06/09 10:41:17;;;;;;;0.70;0.70;;;;;;;;;;5013203;28;20042;-56
2021/06/09 10:43:45;;;;;;;0.90;0.90;;;;;;;;;;5005959;28;20495;-56
2021/06/09 10:46:12;;;;;;;0.70;0.70;;;;;;;;;;5008923;28;20026;-57
2021/06/09 10:48:40;;;;;;;0.98;0.70;;;;;;;;;;5011060;28;20036;-57
2021/06/09 10:51:07;;;;;;;0.70;0.70;;;;;;;;;;5009802;28;20528;-57
2021/06/09 10:53:36;;;;;;;3.75;0.70;;;;;;;;;;5005349;28;20034;-58
2021/06/09 10:56:03;;;;;;;2.65;0.60;;;;;;;;;;5009155;28;20049;-57
2021/06/09 10:58:30;;;;;;;2.67;0.60;;;;;;;;;;5009859;28;20538;-56
2021/06/09 11:00:57;;;;;;;1.65;0.65;;;;;;;;;;5010015;28;20069;-57
2021/06/09 11:03:25;;;;;;;0.60;0.60;;;;;;;;;;5007032;28;20096;-57
2021/06/09 11:05:52;;;;;;;0.60;0.60;;;;;;;;;;5003836;28;20046;-56
2021/06/09 11:08:19;;;;;;;2.53;0.70;;;;;;;;;;5011112;28;20049;-56
2021/06/09 11:10:48;;;;;;;0.70;0.70;;;;;;;;;;5010119;28;20068;-57
2021/06/09 11:13:33;;;;;;;0.70;0.70;;;;;;;;;;5017780;28;20080;-57
2021/06/09 11:16:08;;;;;;;0.70;0.70;;;;;;;;;;5006159;28;20050;-56
2021/06/09 11:18:40;;;;;;;0.60;0.60;;;;;;;;;;5008041;28;20395;-57
2021/06/09 11:21:09;;;;;;;3.63;0.70;;;;;;;;;;5001486;28;20054;-56
2021/06/09 11:23:39;;;;;;;2.20;0.60;;;;;;;;;;5011528;28;20044;-56
2021/06/09 11:26:07;;;;;;;0.70;0.70;;;;;;;;;;4994686;28;20406;-57
2021/06/09 11:28:35;;;;;;;0.68;0.60;;;;;;;;;;5011624;28;20033;-58
2021/06/09 11:31:09;;;;;;;0.60;0.60;;;;;;;;;;5011391;28;20408;-57
2021/06/09 11:33:50;;;;;;;0.70;0.70;;;;;;;;;;4996839;28;20054;-56
2021/06/09 11:36:17;;;;;;;4.18;0.60;;;;;;;;;;5007947;28;20046;-53
2021/06/09 11:39:11;;;;;;;0.60;0.60;;;;;;;;;;5009366;28;20049;-53
2021/06/09 11:41:42;;;;;;;0.63;0.63;;;;;;;;;;5008985;28;20046;-52
2021/06/09 11:44:28;;;;;;;0.98;0.60;;;;;;;;;;5009480;28;20037;-53
2021/06/09 11:47:15;;;;;;;1.05;0.60;;;;;;;;;;4997586;28;20034;-52
2021/06/09 11:49:42;;;;;;;1.65;0.55;;;;;;;;;;5004085;28;20045;-53
2021/06/09 11:52:09;;;;;;;2.08;0.70;;;;;;;;;;5009758;28;20065;-53
2021/06/09 11:54:37;;;;;;;0.60;0.60;;;;;;;;;;5008327;28;20070;-54
2021/06/09 11:57:33;;;;;;;1.85;0.60;;;;;;;;;;5007065;28;20046;-54
2021/06/09 12:00:04;;;;;;;0.60;0.60;;;;;;;;;;5005263;28;20046;-53
2021/06/09 12:02:31;;;;;;;3.10;0.60;;;;;;;;;;5008685;28;20042;-53
2021/06/09 12:04:58;;;;;;;2.38;0.63;;;;;;;;;;5011137;28;20462;-53
2021/06/09 12:07:26;;;;;;;2.25;0.60;;;;;;;;;;5005955;28;20092;-53
2021/06/09 12:09:55;;;;;;;1.13;0.60;;;;;;;;;;5011554;28;20398;-54
2021/06/09 12:12:27;;;;;;;0.65;0.60;;;;;;;;;;5009626;28;20574;-52
2021/06/09 12:14:54;;;;;;;0.70;0.70;;;;;;;;;;4998380;28;20125;-53
2021/06/09 12:17:21;;;;;;;0.60;0.60;;;;;;;;;;5011897;28;20081;-54
2021/06/09 12:19:48;;;;;;;1.88;0.60;;;;;;;;;;5007607;28;20486;-52
2021/06/09 12:22:24;;;;;;;1.13;0.60;;;;;;;;;;5011928;28;20099;-53
2021/06/09 12:25:09;;;;;;;0.60;0.60;;;;;;;;;;5010609;28;20034;-53
2021/06/09 12:27:38;;;;;;;0.60;0.60;;;;;;;;;;5008720;28;20049;-53
2021/06/09 12:30:09;;;;;;;3.90;0.93;;;;;;;;;;5010652;28;20041;-54
2021/06/09 12:32:36;;;;;;;0.60;0.60;;;;;;;;;;5008431;28;20537;-53
2021/06/09 12:35:06;;;;;;;1.77;0.70;;;;;;;;;;5009136;28;20038;-51
2021/06/09 12:37:38;;;;;;;0.60;0.60;;;;;;;;;;5009997;28;20034;-47
2021/06/09 12:40:05;;;;;;;0.67;0.67;;;;;;;;;;5008551;28;20461;-46
2021/06/09 12:42:32;;;;;;;0.60;0.60;;;;;;;;;;5010619;28;20569;-45
2021/06/09 12:44:58;;;;;;;0.85;0.60;;;;;;;;;;5009684;28;20707;-45
2021/06/09 12:47:27;;;;;;;1.23;0.70;;;;;;;;;;5006613;28;20038;-46
2021/06/09 12:50:09;;;;;;;1.20;0.60;;;;;;;;;;5008752;28;20041;-45
2021/06/09 12:52:36;;;;;;;0.50;0.50;;;;;;;;;;5006515;28;21623;-44
2021/06/09 12:55:07;;;;;;;0.60;0.60;;;;;;;;;;5007212;28;20109;-45
2021/06/09 12:57:35;;;;;;;2.83;0.70;;;;;;;;;;5009862;28;20093;-46
2021/06/09 13:00:22;;;;;;;3.72;0.60;;;;;;;;;;5008637;28;20064;-44
2021/06/09 13:02:49;;;;;;;1.17;0.60;;;;;;;;;;5009087;28;20053;-44
2021/06/09 13:05:17;;;;;;;1.20;1.00;;;;;;;;;;5008891;28;20046;-47
2021/06/09 13:07:44;;;;;;;1.15;0.60;;;;;;;;;;5007451;28;20465;-45
2021/06/09 13:10:13;;;;;;;0.60;0.60;;;;;;;;;;5011393;28;20115;-45
2021/06/09 13:12:40;;;;;;;0.80;0.70;;;;;;;;;;5006384;28;20045;-45
2021/06/09 13:15:08;;;;;;;1.13;0.60;;;;;;;;;;5007815;28;20046;-44
2021/06/09 13:17:45;;;;;;;1.48;0.60;;;;;;;;;;5010084;28;20425;-44
2021/06/09 13:20:13;;;;;;;0.60;0.60;;;;;;;;;;5006924;28;20055;-44
2021/06/09 13:22:40;;;;;;;0.80;0.80;;;;;;;;;;5009353;28;20473;-45
2021/06/09 13:25:07;;;;;;;0.73;0.60;;;;;;;;;;5009142;28;20100;-45
2021/06/09 13:27:34;;;;;;;2.55;0.70;;;;;;;;;;5006187;28;20035;-44
2021/06/09 13:30:01;;;;;;;0.95;0.95;;;;;;;;;;5010977;28;20496;-45
2021/06/09 13:32:32;;;;;;;0.70;0.70;;;;;;;;;;5008019;28;20042;-45
2021/06/09 13:35:00;;;;;;;0.60;0.60;;;;;;;;;;5009537;28;20060;-47
2021/06/09 13:37:28;;;;;;;0.70;0.70;;;;;;;;;;5008779;28;20111;-47
2021/06/09 13:40:24;;;;;;;1.77;0.60;;;;;;;;;;5006973;28;20474;-44
2021/06/09 13:42:59;;;;;;;1.30;0.50;;;;;;;;;;5008874;28;20379;-45
2021/06/09 13:45:27;;;;;;;0.60;0.60;;;;;;;;;;5006907;28;20042;-44
2021/06/09 13:48:13;;;;;;;2.70;0.60;;;;;;;;;;5006921;28;20042;-45
2021/06/09 13:50:41;;;;;;;0.77;0.70;;;;;;;;;;5008981;28;20050;-45
2021/06/09 13:53:10;;;;;;;1.77;0.70;;;;;;;;;;5007423;28;20489;-47
2021/06/09 13:55:38;;;;;;;0.60;0.60;;;;;;;;;;5007572;28;20070;-44
2021/06/09 13:58:16;;;;;;;0.75;0.68;;;;;;;;;;5009970;28;20050;-45
2021/06/09 14:00:42;;;;;;;0.60;0.60;;;;;;;;;;5000452;28;20426;-45
2021/06/09 14:03:17;;;;;;;0.60;0.60;;;;;;;;;;5007813;28;20053;-47
2021/06/09 14:05:44;;;;;;;1.42;0.70;;;;;;;;;;5007585;28;20049;-44
2021/06/09 14:08:11;;;;;;;3.92;0.60;;;;;;;;;;5006629;28;20047;-45
2021/06/09 14:10:40;;;;;;;0.70;0.70;;;;;;;;;;5014782;28;20046;-45
2021/06/09 14:13:14;;;;;;;0.82;0.82;;;;;;;;;;5011618;28;20045;-47
2021/06/09 14:15:47;;;;;;;2.05;0.50;;;;;;;;;;5010504;28;20109;-48
2021/06/09 14:18:15;;;;;;;2.25;0.60;;;;;;;;;;5013230;28;20037;-44
2021/06/09 14:20:42;;;;;;;0.60;0.60;;;;;;;;;;5007795;28;20466;-45
2021/06/09 14:23:09;;;;;;;1.30;0.73;;;;;;;;;;5014765;28;20100;-45
2021/06/09 14:25:35;;;;;;;0.70;0.70;;;;;;;;;;5010955;28;20045;-47
2021/06/09 14:28:06;;;;;;;0.70;0.70;;;;;;;;;;5010583;28;20038;-48
2021/06/09 14:30:44;;;;;;;0.70;0.70;;;;;;;;;;5014047;28;20064;-46
2021/06/09 14:33:40;;;;;;;1.88;0.70;;;;;;;;;;5011077;28;20046;-47
2021/06/09 14:38:35;;;;;;;1.63;0.80;;;;;;;;;;5022431;28;20044;-45
2021/06/09 14:41:15;;;;;;;2.08;0.80;;;;;;;;;;5017231;28;20124;-44
2021/06/09 14:43:55;;;;;;;0.70;0.70;;;;;;;;;;5021142;28;20030;-45
2021/06/09 14:46:25;;;;;;;1.70;0.80;;;;;;;;;;5012749;28;20096;-46
2021/06/09 14:48:54;;;;;;;0.80;0.80;;;;;;;;;;5011121;28;20120;-44
2021/06/09 14:51:23;;;;;;;1.38;0.80;;;;;;;;;;5012169;28;20050;-44
2021/06/09 14:53:51;;;;;;;1.67;0.90;;;;;;;;;;5010183;28;20065;-46
2021/06/09 14:56:19;;;;;;;0.90;0.90;;;;;;;;;;5010065;28;20093;-49
2021/06/09 14:58:47;;;;;;;2.85;0.90;;;;;;;;;;5013839;28;20092;-47
2021/06/09 15:01:15;;;;;;;1.48;0.90;;;;;;;;;;5010544;28;20494;-44